sensor_id;sensor_type;location;lat;lon;timestamp;temperature;humidity
15048;DHT22;7621;52.350;13.308;2022-10-31T05:37:00;11.30;99.90
15048;DHT22;7621;52.350;13.308;2022-10-31T05:39:26;11.30;99.90
15048;DHT22;7621;52.350;13.308;2022-10-31T05:41:51;11.30;99.90
15048;DHT22;7621;52.350;13.308;2022-10-31T05:44:17;11.20;99.90
15048;DHT22;7621;52.350;13.308;2022-10-31T05:46:42;11.20;99.90
15048;DHT22;7621;52.350;13.308;2022-10-31T05:49:08;11.20;99.90
15048;DHT22;7621;52.350;13.308;2022-10-31T05:51:33;11.20;99.90
15048;DHT22;7621;52.350;13.308;2022-10-31T05:53:59;11.10;99.90
15048;DHT22;7621;52.350;13.308;2022-10-31T05:56:24;11.10;99.90
15048;DHT22;7621;52.350;13.308;2022-10-31T05:58:50;11.10;99.90
15048;DHT22;7621;52.350;13.308;2022-10-31T06:01:15;11.10;99.90
15048;DHT22;7621;52.350;13.308;2022-10-31T06:03:41;11.10;99.90
15048;DHT22;7621;52.350;13.308;2022-10-31T06:06:07;11.10;99.90
15048;DHT22;7621;52.350;13.308;2022-10-31T06:08:33;11.10;99.90
15048;DHT22;7621;52.350;13.308;2022-10-31T06:10:58;11.10;99.90
15048;DHT22;7621;52.350;13.308;2022-10-31T06:13:24;11.20;99.90
15048;DHT22;7621;52.350;13.308;2022-10-31T06:15:49;11.20;99.90
15048;DHT22;7621;52.350;13.308;2022-10-31T06:18:15;11.20;99.90
15048;DHT22;7621;52.350;13.308;2022-10-31T06:20:40;11.20;99.90
15048;DHT22;7621;52.350;13.308;2022-10-31T06:23:06;11.30;99.90
15048;DHT22;7621;52.350;13.308;2022-10-31T06:25:32;11.30;99.90
15048;DHT22;7621;52.350;13.308;2022-10-31T06:27:58;11.30;99.90
15048;DHT22;7621;52.350;13.308;2022-10-31T06:30:24;11.30;99.90
15048;DHT22;7621;52.350;13.308;2022-10-31T06:32:49;11.40;99.90
15048;DHT22;7621;52.350;13.308;2022-10-31T06:35:15;11.50;99.90
15048;DHT22;7621;52.350;13.308;2022-10-31T06:37:41;11.50;99.90
15048;DHT22;7621;52.350;13.308;2022-10-31T06:40:07;11.60;99.90
15048;DHT22;7621;52.350;13.308;2022-10-31T06:42:32;11.70;99.90
15048;DHT22;7621;52.350;13.308;2022-10-31T06:44:58;11.80;99.90
15048;DHT22;7621;52.350;13.308;2022-10-31T06:47:23;11.90;99.90
15048;DHT22;7621;52.350;13.308;2022-10-31T06:49:49;12.00;99.90
15048;DHT22;7621;52.350;13.308;2022-10-31T06:52:14;12.10;99.90
15048;DHT22;7621;52.350;13.308;2022-10-31T06:54:40;12.20;99.90
15048;DHT22;7621;52.350;13.308;2022-10-31T06:57:05;12.30;99.90
15048;DHT22;7621;52.350;13.308;2022-10-31T06:59:31;12.30;99.90
15048;DHT22;7621;52.350;13.308;2022-10-31T07:01:57;12.40;99.90
15048;DHT22;7621;52.350;13.308;2022-10-31T07:04:23;12.50;99.90
15048;DHT22;7621;52.350;13.308;2022-10-31T07:06:51;12.60;99.90
15048;DHT22;7621;52.350;13.308;2022-10-31T07:09:17;12.90;99.90
15048;DHT22;7621;52.350;13.308;2022-10-31T07:11:42;13.30;99.90
15048;DHT22;7621;52.350;13.308;2022-10-31T07:14:08;13.70;99.90
15048;DHT22;7621;52.350;13.308;2022-10-31T07:16:34;14.20;99.90
15048;DHT22;7621;52.350;13.308;2022-10-31T07:18:59;14.70;99.90
15048;DHT22;7621;52.350;13.308;2022-10-31T07:21:25;15.10;99.90
15048;DHT22;7621;52.350;13.308;2022-10-31T07:23:55;15.60;99.90
15048;DHT22;7621;52.350;13.308;2022-10-31T07:26:24;15.90;99.90
15048;DHT22;7621;52.350;13.308;2022-10-31T07:28:49;16.30;99.90
15048;DHT22;7621;52.350;13.308;2022-10-31T07:31:15;16.70;99.90
15048;DHT22;7621;52.350;13.308;2022-10-31T07:33:41;17.10;99.90
15048;DHT22;7621;52.350;13.308;2022-10-31T07:36:07;17.50;99.90
15048;DHT22;7621;52.350;13.308;2022-10-31T07:38:32;17.90;99.90
15048;DHT22;7621;52.350;13.308;2022-10-31T07:40:58;18.40;99.90
15048;DHT22;7621;52.350;13.308;2022-10-31T07:43:23;18.80;99.90
15048;DHT22;7621;52.350;13.308;2022-10-31T07:45:53;19.10;99.90
15048;DHT22;7621;52.350;13.308;2022-10-31T07:48:20;19.40;99.90
15048;DHT22;7621;52.350;13.308;2022-10-31T07:50:45;19.80;99.90
15048;DHT22;7621;52.350;13.308;2022-10-31T07:53:12;20.20;99.50
15048;DHT22;7621;52.350;13.308;2022-10-31T07:55:38;20.50;98.30
15048;DHT22;7621;52.350;13.308;2022-10-31T07:58:12;21.00;96.90
15048;DHT22;7621;52.350;13.308;2022-10-31T08:00:39;21.40;95.50
15048;DHT22;7621;52.350;13.308;2022-10-31T08:03:11;22.00;94.70
15048;DHT22;7621;52.350;13.308;2022-10-31T08:05:40;22.50;92.50
15048;DHT22;7621;52.350;13.308;2022-10-31T08:08:11;22.50;90.20
15048;DHT22;7621;52.350;13.308;2022-10-31T08:10:37;22.10;88.90
15048;DHT22;7621;52.350;13.308;2022-10-31T08:13:08;21.50;90.10
15048;DHT22;7621;52.350;13.308;2022-10-31T08:15:35;20.90;91.00
15048;DHT22;7621;52.350;13.308;2022-10-31T08:18:04;20.40;91.70
15048;DHT22;7621;52.350;13.308;2022-10-31T08:20:29;19.90;92.70
15048;DHT22;7621;52.350;13.308;2022-10-31T08:23:00;19.60;93.40
15048;DHT22;7621;52.350;13.308;2022-10-31T08:25:27;19.30;93.90
15048;DHT22;7621;52.350;13.308;2022-10-31T08:27:55;18.90;94.50
15048;DHT22;7621;52.350;13.308;2022-10-31T08:30:24;18.70;95.20
15048;DHT22;7621;52.350;13.308;2022-10-31T08:33:04;18.50;95.80
15048;DHT22;7621;52.350;13.308;2022-10-31T08:35:32;18.40;96.40
15048;DHT22;7621;52.350;13.308;2022-10-31T08:37:58;18.30;96.70
15048;DHT22;7621;52.350;13.308;2022-10-31T08:40:25;18.30;97.00
15048;DHT22;7621;52.350;13.308;2022-10-31T08:45:23;18.40;97.50
15048;DHT22;7621;52.350;13.308;2022-10-31T08:47:49;18.60;97.40
15048;DHT22;7621;52.350;13.308;2022-10-31T08:50:15;18.80;97.30
15048;DHT22;7621;52.350;13.308;2022-10-31T08:52:40;19.00;97.10
15048;DHT22;7621;52.350;13.308;2022-10-31T08:55:06;19.30;96.90
15048;DHT22;7621;52.350;13.308;2022-10-31T08:57:32;19.90;96.90
15048;DHT22;7621;52.350;13.308;2022-10-31T08:59:57;21.10;96.00
15048;DHT22;7621;52.350;13.308;2022-10-31T09:02:23;22.70;93.90
15048;DHT22;7621;52.350;13.308;2022-10-31T09:04:48;23.90;89.80
15048;DHT22;7621;52.350;13.308;2022-10-31T09:07:14;24.40;84.30
15048;DHT22;7621;52.350;13.308;2022-10-31T09:09:39;24.20;80.40
15048;DHT22;7621;52.350;13.308;2022-10-31T09:12:05;23.70;79.80
15048;DHT22;7621;52.350;13.308;2022-10-31T09:14:30;23.30;81.50
15048;DHT22;7621;52.350;13.308;2022-10-31T09:16:56;22.80;82.10
15048;DHT22;7621;52.350;13.308;2022-10-31T09:19:22;22.20;84.20
15048;DHT22;7621;52.350;13.308;2022-10-31T09:21:47;21.90;85.80
15048;DHT22;7621;52.350;13.308;2022-10-31T09:24:13;21.60;87.20
15048;DHT22;7621;52.350;13.308;2022-10-31T09:26:38;21.40;88.70
15048;DHT22;7621;52.350;13.308;2022-10-31T09:29:04;21.30;89.50
15048;DHT22;7621;52.350;13.308;2022-10-31T09:31:29;21.40;90.10
15048;DHT22;7621;52.350;13.308;2022-10-31T09:33:55;21.60;90.30
15048;DHT22;7621;52.350;13.308;2022-10-31T09:36:20;22.00;89.60
15048;DHT22;7621;52.350;13.308;2022-10-31T09:38:46;22.40;89.30
15048;DHT22;7621;52.350;13.308;2022-10-31T09:46:32;23.90;85.00
15048;DHT22;7621;52.350;13.308;2022-10-31T09:49:32;24.10;82.80
15048;DHT22;7621;52.350;13.308;2022-10-31T09:54:48;23.50;81.00
15048;DHT22;7621;52.350;13.308;2022-10-31T09:57:24;22.90;81.70
15048;DHT22;7621;52.350;13.308;2022-10-31T09:59:50;22.20;83.00
15048;DHT22;7621;52.350;13.308;2022-10-31T10:02:22;21.50;86.20
15048;DHT22;7621;52.350;13.308;2022-10-31T10:05:00;21.00;88.00
15048;DHT22;7621;52.350;13.308;2022-10-31T10:07:46;20.70;89.70
15048;DHT22;7621;52.350;13.308;2022-10-31T10:10:45;20.50;90.60
15048;DHT22;7621;52.350;13.308;2022-10-31T10:22:09;21.70;91.20
15048;DHT22;7621;52.350;13.308;2022-10-31T10:27:41;22.40;88.70
15048;DHT22;7621;52.350;13.308;2022-10-31T10:35:47;22.50;85.10
15048;DHT22;7621;52.350;13.308;2022-10-31T10:38:37;22.20;84.60
15048;DHT22;7621;52.350;13.308;2022-10-31T10:41:07;21.80;86.40
15048;DHT22;7621;52.350;13.308;2022-10-31T10:43:38;21.50;87.10
15048;DHT22;7621;52.350;13.308;2022-10-31T10:46:41;21.20;88.60
15048;DHT22;7621;52.350;13.308;2022-10-31T10:49:32;20.90;90.00
15048;DHT22;7621;52.350;13.308;2022-10-31T10:52:15;20.70;90.60
15048;DHT22;7621;52.350;13.308;2022-10-31T10:57:42;20.70;91.10
15048;DHT22;7621;52.350;13.308;2022-10-31T11:00:19;20.70;90.90
15048;DHT22;7621;52.350;13.308;2022-10-31T11:02:45;20.60;90.90
15048;DHT22;7621;52.350;13.308;2022-10-31T11:05:22;20.60;91.10
15048;DHT22;7621;52.350;13.308;2022-10-31T11:07:48;20.50;91.20
15048;DHT22;7621;52.350;13.308;2022-10-31T11:10:15;20.50;91.50
15048;DHT22;7621;52.350;13.308;2022-10-31T11:12:43;20.50;91.50
15048;DHT22;7621;52.350;13.308;2022-10-31T11:15:20;20.50;91.70
15048;DHT22;7621;52.350;13.308;2022-10-31T11:17:50;20.70;91.70
15048;DHT22;7621;52.350;13.308;2022-10-31T11:20:23;20.70;91.80
15048;DHT22;7621;52.350;13.308;2022-10-31T11:22:49;20.70;91.80
15048;DHT22;7621;52.350;13.308;2022-10-31T11:25:26;20.80;91.90
15048;DHT22;7621;52.350;13.308;2022-10-31T11:28:03;21.10;91.80
15048;DHT22;7621;52.350;13.308;2022-10-31T11:30:29;21.30;91.60
15048;DHT22;7621;52.350;13.308;2022-10-31T11:32:56;21.40;91.10
15048;DHT22;7621;52.350;13.308;2022-10-31T11:35:24;21.40;91.10
15048;DHT22;7621;52.350;13.308;2022-10-31T11:37:52;21.50;90.90
15048;DHT22;7621;52.350;13.308;2022-10-31T11:40:25;21.50;90.90
15048;DHT22;7621;52.350;13.308;2022-10-31T11:42:53;21.50;90.80
15048;DHT22;7621;52.350;13.308;2022-10-31T11:47:50;21.60;90.70
15048;DHT22;7621;52.350;13.308;2022-10-31T11:50:25;21.60;90.50
15048;DHT22;7621;52.350;13.308;2022-10-31T11:52:53;21.50;90.70
15048;DHT22;7621;52.350;13.308;2022-10-31T11:55:37;21.50;91.00
15048;DHT22;7621;52.350;13.308;2022-10-31T11:58:04;21.40;91.10
15048;DHT22;7621;52.350;13.308;2022-10-31T12:00:36;21.40;91.30
15048;DHT22;7621;52.350;13.308;2022-10-31T12:06:00;21.40;91.30
15048;DHT22;7621;52.350;13.308;2022-10-31T12:08:32;21.40;91.60
15048;DHT22;7621;52.350;13.308;2022-10-31T12:11:31;21.40;91.70
15048;DHT22;7621;52.350;13.308;2022-10-31T12:17:30;21.40;91.60
15048;DHT22;7621;52.350;13.308;2022-10-31T12:36:47;21.60;91.20
15048;DHT22;7621;52.350;13.308;2022-10-31T12:42:46;21.30;91.40
15048;DHT22;7621;52.350;13.308;2022-10-31T12:58:52;21.40;91.80
15048;DHT22;7621;52.350;13.308;2022-10-31T13:01:32;21.40;91.80
15048;DHT22;7621;52.350;13.308;2022-10-31T13:06:42;21.30;91.80
15048;DHT22;7621;52.350;13.308;2022-10-31T13:09:13;21.30;91.90
15048;DHT22;7621;52.350;13.308;2022-10-31T13:11:45;21.30;92.10
15048;DHT22;7621;52.350;13.308;2022-10-31T13:16:54;21.20;92.30
15048;DHT22;7621;52.350;13.308;2022-10-31T13:19:25;21.10;92.20
15048;DHT22;7621;52.350;13.308;2022-10-31T13:22:06;21.10;92.20
15048;DHT22;7621;52.350;13.308;2022-10-31T13:24:43;21.10;92.20
15048;DHT22;7621;52.350;13.308;2022-10-31T13:27:15;21.00;92.20
15048;DHT22;7621;52.350;13.308;2022-10-31T13:29:53;20.90;92.40
15048;DHT22;7621;52.350;13.308;2022-10-31T13:32:20;20.90;92.50
15048;DHT22;7621;52.350;13.308;2022-10-31T13:34:51;20.90;92.70
15048;DHT22;7621;52.350;13.308;2022-10-31T13:37:37;20.80;92.70
15048;DHT22;7621;52.350;13.308;2022-10-31T13:40:44;20.70;92.90
15048;DHT22;7621;52.350;13.308;2022-10-31T13:43:24;20.60;93.20
15048;DHT22;7621;52.350;13.308;2022-10-31T13:45:54;20.40;93.40
15048;DHT22;7621;52.350;13.308;2022-10-31T13:48:33;20.30;93.60
15048;DHT22;7621;52.350;13.308;2022-10-31T13:51:01;20.20;93.80
15048;DHT22;7621;52.350;13.308;2022-10-31T13:53:39;20.10;94.00
15048;DHT22;7621;52.350;13.308;2022-10-31T13:56:14;20.10;94.20
15048;DHT22;7621;52.350;13.308;2022-10-31T13:58:54;20.00;94.40
15048;DHT22;7621;52.350;13.308;2022-10-31T14:01:22;19.90;94.60
15048;DHT22;7621;52.350;13.308;2022-10-31T14:07:21;19.90;94.90
15048;DHT22;7621;52.350;13.308;2022-10-31T14:12:37;19.70;95.20
15048;DHT22;7621;52.350;13.308;2022-10-31T14:15:21;19.60;95.50
15048;DHT22;7621;52.350;13.308;2022-10-31T14:17:56;19.60;95.60
15048;DHT22;7621;52.350;13.308;2022-10-31T14:20:37;19.60;95.80
15048;DHT22;7621;52.350;13.308;2022-10-31T14:26:05;19.50;96.00
15048;DHT22;7621;52.350;13.308;2022-10-31T14:28:36;19.50;96.10
15048;DHT22;7621;52.350;13.308;2022-10-31T14:31:01;19.50;96.20
15048;DHT22;7621;52.350;13.308;2022-10-31T14:33:29;19.40;96.30
15048;DHT22;7621;52.350;13.308;2022-10-31T14:36:11;19.40;96.50
15048;DHT22;7621;52.350;13.308;2022-10-31T14:47:00;19.20;96.80
15048;DHT22;7621;52.350;13.308;2022-10-31T14:49:47;19.10;96.80
15048;DHT22;7621;52.350;13.308;2022-10-31T14:52:17;19.00;96.90
15048;DHT22;7621;52.350;13.308;2022-10-31T14:54:46;19.00;97.00
15048;DHT22;7621;52.350;13.308;2022-10-31T14:57:25;18.90;97.10
15048;DHT22;7621;52.350;13.308;2022-10-31T14:59:55;18.90;97.20
15048;DHT22;7621;52.350;13.308;2022-10-31T15:02:49;18.80;97.30
15048;DHT22;7621;52.350;13.308;2022-10-31T15:05:16;18.70;97.30
15048;DHT22;7621;52.350;13.308;2022-10-31T15:07:53;18.60;97.40
15048;DHT22;7621;52.350;13.308;2022-10-31T15:10:22;18.50;97.50
15048;DHT22;7621;52.350;13.308;2022-10-31T15:12:48;18.40;97.60
15048;DHT22;7621;52.350;13.308;2022-10-31T15:15:21;18.30;97.80
15048;DHT22;7621;52.350;13.308;2022-10-31T15:17:58;18.20;97.90
15048;DHT22;7621;52.350;13.308;2022-10-31T15:20:27;18.10;98.10
15048;DHT22;7621;52.350;13.308;2022-10-31T15:22:58;18.00;98.20
15048;DHT22;7621;52.350;13.308;2022-10-31T15:25:28;17.90;98.40
15048;DHT22;7621;52.350;13.308;2022-10-31T15:27:55;17.80;98.50
15048;DHT22;7621;52.350;13.308;2022-10-31T15:30:22;17.70;98.50
15048;DHT22;7621;52.350;13.308;2022-10-31T15:32:48;17.70;98.70
15048;DHT22;7621;52.350;13.308;2022-10-31T15:35:28;17.50;99.00
15048;DHT22;7621;52.350;13.308;2022-10-31T15:37:56;17.40;99.10
15048;DHT22;7621;52.350;13.308;2022-10-31T15:40:24;17.40;99.30
15048;DHT22;7621;52.350;13.308;2022-10-31T15:42:59;17.30;99.40
15048;DHT22;7621;52.350;13.308;2022-10-31T15:45:27;17.20;99.50
15048;DHT22;7621;52.350;13.308;2022-10-31T15:50:39;17.00;99.90
15048;DHT22;7621;52.350;13.308;2022-10-31T15:53:14;17.00;99.90
15048;DHT22;7621;52.350;13.308;2022-10-31T15:55:53;16.90;99.90
15048;DHT22;7621;52.350;13.308;2022-10-31T15:58:20;16.80;99.90
15048;DHT22;7621;52.350;13.308;2022-10-31T16:01:06;16.70;99.90
15048;DHT22;7621;52.350;13.308;2022-10-31T16:03:33;16.70;99.90
15048;DHT22;7621;52.350;13.308;2022-10-31T16:06:01;16.60;99.90
15048;DHT22;7621;52.350;13.308;2022-10-31T16:10:59;16.50;99.90
15048;DHT22;7621;52.350;13.308;2022-10-31T16:13:36;16.40;99.90
15048;DHT22;7621;52.350;13.308;2022-10-31T16:16:04;16.40;99.90
15048;DHT22;7621;52.350;13.308;2022-10-31T16:18:37;16.30;99.90
15048;DHT22;7621;52.350;13.308;2022-10-31T16:21:04;16.30;99.90
15048;DHT22;7621;52.350;13.308;2022-10-31T16:23:30;16.20;99.90
15048;DHT22;7621;52.350;13.308;2022-10-31T16:25:56;16.20;99.90
15048;DHT22;7621;52.350;13.308;2022-10-31T16:28:25;16.20;99.90
15048;DHT22;7621;52.350;13.308;2022-10-31T16:30:53;16.10;99.90
15048;DHT22;7621;52.350;13.308;2022-10-31T16:33:30;16.10;99.90
15048;DHT22;7621;52.350;13.308;2022-10-31T16:35:59;16.10;99.90
15048;DHT22;7621;52.350;13.308;2022-10-31T16:38:26;16.00;99.90
15048;DHT22;7621;52.350;13.308;2022-10-31T16:40:52;16.00;99.90
15048;DHT22;7621;52.350;13.308;2022-10-31T16:43:19;15.90;99.90
15048;DHT22;7621;52.350;13.308;2022-10-31T16:45:50;15.90;99.90
15048;DHT22;7621;52.350;13.308;2022-10-31T16:48:18;15.90;99.90
15048;DHT22;7621;52.350;13.308;2022-10-31T16:50:46;15.80;99.90
15048;DHT22;7621;52.350;13.308;2022-10-31T16:53:12;15.80;99.90
15048;DHT22;7621;52.350;13.308;2022-10-31T16:58:17;15.80;99.90
15048;DHT22;7621;52.350;13.308;2022-10-31T17:00:44;15.70;99.90
15048;DHT22;7621;52.350;13.308;2022-10-31T17:03:10;15.70;99.90
15048;DHT22;7621;52.350;13.308;2022-10-31T17:05:36;15.70;99.90
15048;DHT22;7621;52.350;13.308;2022-10-31T17:08:02;15.70;99.90
15048;DHT22;7621;52.350;13.308;2022-10-31T17:10:28;15.70;99.90
